Alamo, Georgia
Current Conditions -  °F | °C
As of 1:55 PM on Monday 20 Oct 2014 (Local Time) from KAZE Reporting Station
Broken Clouds Broken Clouds  
Wind Chill: 75°   Ceiling: 3900
Heat Index: 75°   Visibility: 10mi
Dew Point: 61°   Wind: 3mph
Humidity: 60%   Direction: 140°SE
Pressure: 30.03"   Gusts: NA
Location:  32.15°N, 82.78°W
Report Text: KAZE 201755Z AUTO 14003KT 10SM BKN039 BKN048 24/16 A3003 RMK AO2 T02410160 10328 20080
Loading
Personal Weather Stations






























Interactive Weather Map
Tropical Storm Tracking
New forecast layout! Learn more

10-Day Weather Forecast

Advertisements
Track Severe Weather on mobile